BOI weather

Boise Air Terminal/Gowen Field
Boise, Idaho, United States

Public forecast

Using degrees Fahrenheit for public forecast. Weather courtesy of forecast.io.

Current aviation weather report (METAR) for Boise Air Terminal/Gowen Field

Retrieved 2020/04/05 12:53 UTC (25 minutes ago):

KBOI 051253Z 13011KT 10SM OVC090 07/03 A2965 RMK AO2 SLP033 T00670028

Aviation forecast (TAF) for Boise Air Terminal/Gowen Field

Retrieved 2020/04/05 12:33 UTC (45 minutes ago):

TAF KBOI 051130Z 0512/0612 12010KT P6SM BKN100 FM052100 14008KT P6SM VCSH BKN060 OVC100 TEMPO 0521/0524 22015G30KT -SHRA BKN040 FM060000 VRB06KT P6SM VCSH BKN040